Terminal Aerodrome Forecast
Issued by NWS Blacksburg, VA

Home | Current Version | Previous Version | Text Only | Print | Product List | Glossary On
Versions: 1 2 3 4 5 6 7 8 9 10 11 12 13 14 15 16 17 18 19 20 21 22 23 24 25 26 27 28 29 30 31 32 33 34 35 36 37
000
FTUS41 KRNK 021239 AAA
TAFLYH
TAF AMD
KLYH 021239Z 0213/0312 22005KT P6SM SCT035
     FM021500 30010G20KT P6SM BKN100
     FM022100 30005KT P6SM SKC
     FM030000 VRB03KT P6SM SCT250
     FM030900 06003KT P6SM OVC025=

USA.gov is the U.S. government's official web portal to all federal, state and local government web resources and services.